Flight Track Log - Related Links

Times and Time Zones

All times are in EST time to prevent confusion due to time zone crossing. See the VIR19 flight status page for this flight to view local times or setup timezone preferences in your user account.

Time Position Orientation Groundspeed Altitude Reporting Facility
EST Latitude Longitude Course Direction KTS MPH feet Rate Location/Type
Mon 06:44:13 AM 51.4653 -0.4355 North 110 127 1,200  Level FlightAware UK
Mon 06:44:23 AM 51.4650 -0.4265 88° East 177 204 1,500 2,100 Climbing FlightAware ADS-B
Mon 06:44:33 AM 51.4655 -0.4107 79° East 180 207 1,900 2,143 Climbing FlightAware ADS-B
Mon 06:44:37 AM 51.4661 -0.4054 77° East 182 209 2,000 1,333 Climbing FlightAware ADS-B
Mon 06:44:42 AM 51.4674 -0.3989 68° East 184 212 2,100 1,200 Climbing FlightAware ADS-B
Mon 06:44:47 AM 51.4694 -0.3928 60° Northeast 188 216 2,200 1,333 Climbing FlightAware ADS-B
Mon 06:44:51 AM 51.4713 -0.3882 56° Northeast 188 216 2,300 1,200 Climbing FlightAware ADS-B
Mon 06:44:52 AM 51.4708 -0.3893 55° Northeast 189 217 2,300 3,000 Level FlightAware ADS-B
Mon 06:44:53 AM 51.4718 -0.3870 55° Northeast 188 216 2,400 2,571 Climbing FlightAware ADS-B (EGLF / FAB)
Mon 06:44:59 AM 51.4757 -0.3794 50° Northeast 189 217 2,600 1,800 Climbing FlightAware ADS-B
Mon 06:45:03 AM 51.4781 -0.3751 49° Northeast 190 219 2,700 1,500 Climbing FlightAware ADS-B
Mon 06:45:07 AM 51.4790 -0.3730 49° Northeast 190 219 2,800 1,091 Climbing FlightAware ADS-B
Mon 06:45:14 AM 51.4850 -0.3632 48° Northeast 203 234 2,900 923 Climbing FlightAware ADS-B (KPGA)
Mon 06:45:20 AM 51.4885 -0.3563 48° Northeast 201 231 3,000 800 Climbing FlightAware ADS-B
Mon 06:45:29 AM 51.4945 -0.3453 50° Northeast 223 257 3,100 923 Climbing FlightAware ADS-B
Mon 06:45:46 AM 51.5062 -0.3228 50° Northeast 237 273 3,400 889 Climbing FlightAware ADS-B (KPGA)
Mon 06:45:56 AM 51.5132 -0.3091 50° Northeast 247 284 3,500 800 Climbing FlightAware ADS-B
Mon 06:46:01 AM 51.5173 -0.3018 52° Northeast 255 293 3,600 857 Climbing FlightAware ADS-B
Mon 06:46:03 AM 51.5187 -0.2989 53° Northeast 257 296 3,600 500 Level FlightAware ADS-B
Mon 06:46:13 AM 51.5253 -0.2828 58° Northeast 262 302 3,700 1,000 Climbing FlightAware ADS-B
Mon 06:46:15 AM 51.5263 -0.2810 59° Northeast 263 303 3,800 2,000 Climbing FlightAware ADS-B (EGLC / LCY)
Mon 06:46:19 AM 51.5266 -0.2794 63° Northeast 263 303 3,900 1,200 Climbing FlightAware ADS-B (EGLC / LCY)
Mon 06:46:20 AM 51.5296 -0.2708 62° Northeast 263 303 3,900 2,000 Level FlightAware ADS-B
Mon 06:46:25 AM 51.5317 -0.2636 68° East 264 304 4,100 2,400 Climbing FlightAware ADS-B (EGLC / LCY)
Mon 06:46:30 AM 51.5338 -0.2544 70° East 263 303 4,300 3,273 Climbing FlightAware ADS-B
Mon 06:46:36 AM 51.5355 -0.2452 68° East 264 304 4,700 2,667 Climbing FlightAware ADS-B (EGLF / FAB)
Mon 06:46:48 AM 51.5406 -0.2195 71° East 260 299 5,100 1,765 Climbing FlightAware ADS-B
Mon 06:46:53 AM 51.5434 -0.2107 64° Northeast 263 303 5,200 1,333 Climbing FlightAware ADS-B
Mon 06:46:57 AM 51.5454 -0.2057 55° Northeast 267 307 5,300 1,714 Climbing FlightAware ADS-B
Mon 06:47:00 AM 51.5486 -0.1994 52° Northeast 269 310 5,400 2,000 Climbing FlightAware ADS-B
Mon 06:47:03 AM 51.5510 -0.1952 43° Northeast 272 313 5,500 2,000 Climbing FlightAware ADS-B (EGLC / LCY)
Mon 06:47:06 AM 51.5545 -0.1913 38° Northeast 274 315 5,600 2,400 Climbing FlightAware ADS-B
Mon 06:47:08 AM 51.5560 -0.1890 34° Northeast 275 316 5,700 1,500 Climbing FlightAware ADS-B (EGLC / LCY)
Mon 06:47:10 AM 51.5587 -0.1868 31° Northeast 276 318 5,700 1,500 Level FlightAware ADS-B
Mon 06:47:12 AM 51.5607 -0.1848 28° Northeast 277 319 5,800 1,500 Climbing FlightAware ADS-B (EGLC / LCY)
Mon 06:47:14 AM 51.5624 -0.1839 26° Northeast 278 320 5,800 2,000 Level FlightAware ADS-B
Mon 06:47:18 AM 51.5663 -0.1807 20° North 278 320 6,000 2,571 Climbing FlightAware ADS-B (EGLC / LCY)
Mon 06:47:21 AM 51.5719 -0.1784 14° North 280 322 6,100 1,714 Climbing FlightAware ADS-B
Mon 06:47:25 AM 51.5765 -0.1767 North 281 323 6,200 1,000 Climbing FlightAware ADS-B
Mon 06:47:27 AM 51.5793 -0.1762 North 283 326 6,200 1,500 Level FlightAware ADS-B (EGLC / LCY)
Mon 06:47:29 AM 51.5816 -0.1759 North 283 326 6,300 1,091 Climbing FlightAware ADS-B
Mon 06:47:38 AM 51.5933 -0.1753 North 288 331 6,400 857 Climbing FlightAware ADS-B
Mon 06:47:43 AM 51.5994 -0.1752 360° North 295 339 6,500 1,500 Climbing FlightAware ADS-B (EGLC / LCY)
Mon 06:47:46 AM 51.6036 -0.1753 North 282 325 6,600 1,385 Climbing FlightAware ADS-B (KSCH)
Mon 06:47:56 AM 51.6195 -0.1762 357° North 304 350 6,800 1,500 Climbing FlightAware ADS-B
Mon 06:47:58 AM 51.6217 -0.1765 357° North 305 351 6,900 2,250 Climbing FlightAware ADS-B
Mon 06:48:12 AM 51.6415 -0.1781 357° North 308 354 7,400 2,250 Climbing FlightAware ADS-B (EGLC / LCY)
Mon 06:48:14 AM 51.6445 -0.1784 358° North 308 354 7,500 2,000 Climbing FlightAware ADS-B
Mon 06:48:27 AM 51.6627 -0.1795 358° North 314 361 7,900 1,875 Climbing FlightAware ADS-B (EGLC / LCY)
Mon 06:48:30 AM 51.6673 -0.1797 358° North 315 362 8,000 1,875 Climbing FlightAware ADS-B
Mon 06:48:43 AM 51.6861 -0.1810 358° North 318 366 8,400 1,714 Climbing FlightAware ADS-B (EGLC / LCY)
Mon 06:48:44 AM 51.6875 -0.1811 357° North 320 368 8,400 2,769 Level FlightAware ADS-B
Mon 06:48:56 AM 51.7058 -0.1828 358° North 318 366 9,000 2,538 Climbing FlightAware ADS-B
Mon 06:49:10 AM 51.7251 -0.1840 358° North 319 367 9,500 2,250 Climbing FlightAware ADS-B (KSCH)
Mon 06:49:12 AM 51.7291 -0.1842 358° North 319 367 9,600 1,688 Climbing FlightAware ADS-B
Mon 06:49:42 AM 51.7740 -0.1865 358° North 330 380 10,400 1,400 Climbing FlightAware ADS-B
Mon 06:50:12 AM 51.8217 -0.1893 358° North 352 405 11,000 1,500 Climbing FlightAware ADS-B
Mon 06:50:42 AM 51.8723 -0.1923 358° North 363 418 11,900 1,742 Climbing FlightAware ADS-B
Mon 06:50:43 AM 51.8731 -0.1923 358° North 363 418 11,900 1,500 Level FlightAware ADS-B (KPGA)
Mon 06:50:50 AM 51.8845 -0.1936 354° North 364 419 12,100 1,846 Climbing FlightAware ADS-B
Mon 06:50:56 AM 51.8955 -0.1971 346° North 365 420 12,300 2,400 Climbing FlightAware ADS-B
Mon 06:51:00 AM 51.9018 -0.2003 342° North 365 420 12,500 857 Climbing FlightAware ADS-B
Mon 06:51:03 AM 51.9009 -0.1994 342° North 365 420 12,400 2,182 Descending FlightAware ADS-B (KPGA)
Mon 06:51:11 AM 51.9178 -0.2116 332° Northwest 365 420 12,900 3,000 Climbing FlightAware ADS-B
Mon 06:51:13 AM 51.9170 -0.2116 331° Northwest 365 420 12,900 2,400 Level FlightAware ADS-B (EGLF / FAB)
Mon 06:51:16 AM 51.9263 -0.2199 351° North 365 420 13,100 2,100 Climbing FlightAware ADS-B (EGHI / SOU)
Mon 06:51:33 AM 51.9451 -0.2383 329° Northwest 370 426 13,600 1,440 Climbing FlightAware ADS-B (EGLF / FAB)
Mon 06:51:41 AM 51.9619 -0.2556 329° Northwest 375 432 13,700 1,000 Climbing FlightAware ADS-B
Mon 06:52:09 AM 51.9935 -0.2848 330° Northwest 393 452 14,200 1,000 Climbing FlightAware ADS-B
Mon 06:52:11 AM 52.0084 -0.2997 330° Northwest 396 456 14,200 643 Level FlightAware ADS-B
Mon 06:52:37 AM 52.0511 -0.3397 329° Northwest 415 478 14,500 800 Climbing FlightAware ADS-B
Mon 06:52:41 AM 52.0573 -0.3461 329° Northwest 415 478 14,600 1,161 Climbing FlightAware ADS-B
Mon 06:53:08 AM 52.0952 -0.3817 329° Northwest 418 481 15,100 1,548 Climbing FlightAware ADS-B (KPGA)
Mon 06:53:12 AM 52.1102 -0.3964 329° Northwest 427 491 15,400 2,200 Climbing FlightAware ADS-B
Mon 06:53:38 AM 52.1542 -0.4395 329° Northwest 429 494 16,200 1,742 Climbing FlightAware ADS-B
Mon 06:53:43 AM 52.1630 -0.4480 329° Northwest 430 495 16,300 1,778 Climbing FlightAware ADS-B
Mon 06:54:05 AM 52.2004 -0.4852 329° Northwest 433 498 17,000 2,000 Climbing FlightAware ADS-B
Mon 06:54:16 AM 52.2180 -0.5040 328° Northwest 434 499 17,400 2,129 Climbing FlightAware ADS-B
Mon 06:54:36 AM 52.2529 -0.5386 328° Northwest 434 499 18,100 1,875 Climbing FlightAware ADS-B
Mon 06:54:48 AM 52.2724 -0.5580 328° Northwest 436 502 18,400 1,800 Climbing FlightAware ADS-B
Mon 06:55:06 AM 52.3035 -0.5916 328° Northwest 436 502 19,000 1,742 Climbing FlightAware ADS-B (EGHH / BOH)
Mon 06:55:19 AM 52.3254 -0.6146 328° Northwest 438 504 19,300 1,733 Climbing FlightAware ADS-B
Mon 06:55:51 AM 52.3813 -0.6715 328° Northwest 440 506 20,300 1,765 Climbing FlightAware ADS-B
Mon 06:56:10 AM 52.4122 -0.7036 327° Northwest 436 502 20,800 1,543 Climbing FlightAware ADS-B (KSCH)
Mon 06:56:26 AM 52.4409 -0.7320 328° Northwest 445 512 21,200 1,636 Climbing FlightAware ADS-B
Mon 06:56:32 AM 52.4526 -0.7443 329° Northwest 446 513 21,400 1,500 Climbing FlightAware ADS-B
Mon 06:56:42 AM 52.4701 -0.7621 328° Northwest 442 509 21,600 1,385 Climbing FlightAware ADS-B (KSCH)
Mon 06:56:58 AM 52.4987 -0.7905 329° Northwest 451 519 22,000 1,500 Climbing FlightAware ADS-B
Mon 06:57:14 AM 52.5267 -0.8191 329° Northwest 454 522 22,400 1,355 Climbing FlightAware ADS-B
Mon 06:57:29 AM 52.5542 -0.8464 328° Northwest 457 526 22,700 1,355 Climbing FlightAware ADS-B
Mon 06:57:45 AM 52.5835 -0.8761 327° Northwest 455 524 23,100 1,556 Climbing FlightAware ADS-B (KCCR)
Mon 06:57:56 AM 52.6026 -0.8966 328° Northwest 463 533 23,400 1,333 Climbing FlightAware ADS-B
Mon 06:58:03 AM 52.6142 -0.9079 327° Northwest 457 526 23,500 1,579 Climbing FlightAware ADS-B (KSCH)
Mon 06:58:15 AM 52.6370 -0.9324 328° Northwest 464 534 23,900 1,600 Climbing FlightAware ADS-B
Mon 06:58:33 AM 52.6702 -0.9661 328° Northwest 468 539 24,300 1,400 Climbing FlightAware ADS-B
Mon 06:58:45 AM 52.6924 -0.9889 328° Northwest 470 541 24,600 1,895 Climbing FlightAware ADS-B
Mon 06:58:52 AM 52.7043 -1.0004 327° Northwest 455 524 24,900 1,500 Climbing FlightAware ADS-B (EGNT / NCL)
Mon 06:59:17 AM 52.7523 -1.0500 328° Northwest 474 545 25,400 1,161 Climbing FlightAware ADS-B
Mon 06:59:23 AM 52.7622 -1.0616 328° Northwest 475 547 25,500 968 Climbing FlightAware ADS-B
Mon 06:59:48 AM 52.8087 -1.1081 328° Northwest 483 556 25,900 938 Climbing FlightAware ADS-B
Mon 06:59:55 AM 52.8232 -1.1238 327° Northwest 479 551 26,000 1,059 Climbing FlightAware ADS-B (KCCR)
Mon 07:00:05 AM 52.8425 -1.1437 327° Northwest 482 555 26,200 1,385 Climbing FlightAware ADS-B (KCCR)
Mon 07:00:21 AM 52.8718 -1.1734 328° Northwest 490 564 26,600 1,548 Climbing FlightAware ADS-B
Mon 07:00:36 AM 52.9015 -1.2054 328° Northwest 490 564 27,000 1,400 Climbing FlightAware ADS-B
Mon 07:00:51 AM 52.9304 -1.2354 328° Northwest 493 567 27,300 1,200 Climbing FlightAware ADS-B
Mon 07:01:06 AM 52.9596 -1.2655 328° Northwest 494 568 27,600 1,500 Climbing FlightAware ADS-B
Mon 07:01:27 AM 52.9998 -1.3080 328° Northwest 494 568 28,200 1,636 Climbing FlightAware ADS-B
Mon 07:01:39 AM 53.0225 -1.3321 328° Northwest 493 567 28,500 1,600 Climbing FlightAware ADS-B
Mon 07:01:57 AM 53.0588 -1.3686 328° Northwest 493 567 29,000 1,600 Climbing FlightAware ADS-B
Mon 07:02:09 AM 53.0806 -1.3929 328° Northwest 492 566 29,300 1,895 Climbing FlightAware ADS-B
Mon 07:02:16 AM 53.0954 -1.4069 327° Northwest 483 556 29,600 1,500 Climbing FlightAware ADS-B (EGGP / LPL)
Mon 07:02:29 AM 53.1182 -1.4310 328° Northwest 488 562 29,800 960 Climbing FlightAware ADS-B
Mon 07:02:41 AM 53.1382 -1.4531 327° Northwest 480 552 30,000 500 Climbing FlightAware ADS-B (EGCC / MAN)
Mon 07:02:53 AM 53.1654 -1.4810 328° Northwest 485 558 30,000  Level FlightAware ADS-B
Mon 07:02:59 AM 53.1769 -1.4930 328° Northwest 486 559 30,000  Level FlightAware ADS-B
Mon 07:03:13 AM 53.2035 -1.5210 327° Northwest 478 550 30,000  Level FlightAware ADS-B
Mon 07:03:16 AM 53.2076 -1.5269 328° Northwest 485 558 30,000  Level FlightAware ADS-B
Mon 07:03:31 AM 53.2362 -1.5569 327° Northwest 484 557 30,000  Level FlightAware ADS-B
Mon 07:03:34 AM 53.2418 -1.5630 328° Northwest 484 557 30,000  Level FlightAware ADS-B
Mon 07:03:56 AM 53.2835 -1.6069 328° Northwest 482 555 30,000  Level FlightAware ADS-B (EGCW)
Mon 07:04:02 AM 53.2949 -1.6190 328° Northwest 482 555 30,000  Level FlightAware ADS-B
Mon 07:04:15 AM 53.3195 -1.6450 327° Northwest 476 548 30,000  Level FlightAware ADS-B (EGGP / LPL)
Mon 07:04:33 AM 53.3524 -1.6790 327° Northwest 482 555 30,000  Level FlightAware ADS-B
Mon 07:04:38 AM 53.3622 -1.6911 327° Northwest 482 555 30,000  Level FlightAware ADS-B
Mon 07:04:52 AM 53.3884 -1.7191 328° Northwest 482 555 30,000  Level FlightAware ADS-B
Mon 07:05:03 AM 53.4101 -1.7413 327° Northwest 482 555 30,000  Level FlightAware ADS-B
Mon 07:05:17 AM 53.4362 -1.7694 328° Northwest 482 555 30,000  Level FlightAware ADS-B
Mon 07:05:33 AM 53.4667 -1.8017 327° Northwest 482 555 30,000  Level FlightAware ADS-B
Mon 07:05:34 AM 53.4676 -1.8037 328° Northwest 482 555 30,000  Level FlightAware ADS-B
Mon 07:06:06 AM 53.5277 -1.8683 327° Northwest 484 557 30,000  Level FlightAware ADS-B
Mon 07:06:08 AM 53.5317 -1.8724 327° Northwest 482 555 30,000  Level FlightAware ADS-B
Mon 07:06:10 AM 53.5353 -1.8765 328° Northwest 484 557 30,000  Level FlightAware ADS-B
Mon 07:06:32 AM 53.5767 -1.9211 328° Northwest 482 555 30,000  Level FlightAware ADS-B
Mon 07:07:02 AM 53.6332 -1.9820 327° Northwest 483 556 30,000  Level FlightAware ADS-B
Mon 07:07:09 AM 53.6465 -1.9962 327° Northwest 483 556 30,000  Level FlightAware ADS-B (KEGE)
Mon 07:07:17 AM 53.6623 -2.0125 328° Northwest 482 555 30,000  Level FlightAware ADS-B
Mon 07:07:49 AM 53.7207 -2.0754 329° Northwest 484 557 30,000  Level FlightAware ADS-B
Mon 07:08:00 AM 53.7426 -2.0972 331° Northwest 476 548 30,000  Level FlightAware ADS-B (KEGE)
Mon 07:08:20 AM 53.7830 -2.1297 337° Northwest 483 556 30,000  Level FlightAware ADS-B (EGCC / MAN)
Mon 07:08:30 AM 53.8038 -2.1445 337° Northwest 475 547 30,000  Level FlightAware ADS-B (KLEX)
Mon 07:08:43 AM 53.8314 -2.1634 335° Northwest 482 555 30,000  Level FlightAware ADS-B
Mon 07:08:56 AM 53.8575 -2.1840 338° Northwest 483 556 30,000  Level FlightAware ADS-B (EGGP / LPL)
Mon 07:09:08 AM 53.8811 -2.2041 334° Northwest 481 554 30,000  Level FlightAware ADS-B
Mon 07:09:17 AM 53.8811 -2.2041 334° Northwest 482 555 30,000  Level FlightAware ADS-B
Mon 07:09:50 AM 53.9607 -2.2717 334° Northwest 482 555 30,000  Level FlightAware ADS-B (EGNT / NCL)
Mon 07:10:25 AM 54.0344 -2.3333 334° Northwest 484 557 30,000  Level FlightAware ADS-B
Mon 07:10:57 AM 54.0989 -2.3862 334° Northwest 484 557 30,000  Level FlightAware ADS-B
Mon 07:11:27 AM 54.1597 -2.4355 334° Northwest 484 557 30,000  Level FlightAware ADS-B
Mon 07:11:57 AM 54.2206 -2.4852 334° Northwest 487 560 30,000  Level FlightAware ADS-B
Mon 07:12:31 AM 54.2888 -2.5420 334° Northwest 488 562 30,000  Level FlightAware ADS-B (EGCC / MAN)
Mon 07:13:02 AM 54.3519 -2.5940 334° Northwest 488 562 30,000  Level FlightAware ADS-B (EGNT / NCL)
Mon 07:13:37 AM 54.4191 -2.6496 334° Northwest 488 562 30,000  Level FlightAware ADS-B
Mon 07:14:07 AM 54.4843 -2.7038 334° Northwest 487 560 30,000  Level FlightAware ADS-B
Mon 07:14:38 AM 54.5468 -2.7563 334° Northwest 488 562 30,000  Level FlightAware ADS-B
Mon 07:15:08 AM 54.6080 -2.8076 334° Northwest 489 563 30,000  Level FlightAware ADS-B
Mon 07:15:41 AM 54.6744 -2.8643 334° Northwest 489 563 30,000  Level FlightAware ADS-B (EGPH / EDI)
Mon 07:16:13 AM 54.7405 -2.9194 334° Northwest 489 563 30,000  Level FlightAware ADS-B
Mon 07:16:37 AM 54.7832 -2.9555 334° Northwest 489 563 30,000  Level FlightAware ADS-B (EGNT / NCL)
Mon 07:16:54 AM 54.8190 -2.9866 334° Northwest 490 564 30,000  Level FlightAware ADS-B (EGNT / NCL)
Mon 07:17:30 AM 54.8960 -3.0526 334° Northwest 490 564 30,000  Level FlightAware ADS-B
Mon 07:18:00 AM 54.9574 -3.1049 334° Northwest 490 564 30,000  Level FlightAware ADS-B (EGNT / NCL)
Mon 07:18:14 AM 54.9854 -3.1294 333° Northwest 484 557 30,000  Level FlightAware ADS-B (KLEX)
Mon 07:18:34 AM 55.0266 -3.1642 333° Northwest 484 557 30,000  Level FlightAware ADS-B (KLEX)
Mon 07:18:54 AM 55.0622 -3.1959 334° Northwest 491 565 30,000  Level FlightAware ADS-B
Mon 07:19:13 AM 55.1054 -3.2329 333° Northwest 483 556 30,000  Level FlightAware ADS-B
Mon 07:19:34 AM 55.1481 -3.2699 333° Northwest 483 556 30,000  Level FlightAware ADS-B (KLEX)
Mon 07:20:15 AM 55.2293 -3.3406 334° Northwest 491 565 30,000  Level FlightAware ADS-B (EGPH / EDI)
Mon 07:20:29 AM 55.2597 -3.3672 333° Northwest 483 556 30,000  Level FlightAware ADS-B
Mon 07:20:43 AM 55.2879 -3.3920 333° Northwest 483 556 30,000  Level FlightAware ADS-B (KLEX)
Mon 07:21:04 AM 55.3312 -3.4293 333° Northwest 484 557 30,000  Level FlightAware ADS-B (KLEX)
Mon 07:21:40 AM 55.4034 -3.4936 333° Northwest 485 558 30,000  Level FlightAware ADS-B (KLEX)
Mon 07:22:12 AM 55.4691 -3.5512 333° Northwest 493 567 30,000  Level FlightAware ADS-B
Mon 07:22:48 AM 55.5397 -3.6143 333° Northwest 494 568 30,000  Level FlightAware ADS-B (EGPH / EDI)
Mon 07:23:21 AM 55.6095 -3.6760 333° Northwest 495 570 30,000  Level FlightAware ADS-B
Mon 07:23:52 AM 55.6730 -3.7326 333° Northwest 488 562 30,000  Level FlightAware ADS-B (KLEX)
Mon 07:24:23 AM 55.7369 -3.7908 333° Northwest 496 571 30,000  Level FlightAware UK
Mon 07:24:30 AM 55.7502 -3.8022 333° Northwest 496 571 30,000  Level FlightAware ADS-B
Mon 07:25:09 AM 55.8278 -3.8722 333° Northwest 496 571 30,000  Level FlightAware ADS-B
Mon 07:25:41 AM 55.8958 -3.9343 333° Northwest 496 571 30,000  Level FlightAware UK
Mon 07:25:49 AM 55.9071 -3.9442 333° Northwest 496 571 30,000  Level FlightAware ADS-B (EGPH / EDI)
Mon 07:26:20 AM 55.9726 -4.0036 333° Northwest 497 572 30,000  Level FlightAware ADS-B
Mon 07:26:53 AM 56.0432 -4.0670 332° Northwest 491 565 30,000  Level FlightAware ADS-B (KLEX)
Mon 07:27:26 AM 56.1089 -4.1271 333° Northwest 498 573 30,000  Level FlightAware ADS-B (EGPH / EDI)
Mon 07:27:57 AM 56.1718 -4.1855 333° Northwest 498 573 30,000  Level FlightAware ADS-B
Mon 07:28:24 AM 56.2295 -4.2384 332° Northwest 491 565 30,000  Level FlightAware ADS-B (KLEX)
Mon 07:28:46 AM 56.2746 -4.2802 332° Northwest 492 566 30,000  Level FlightAware ADS-B (KLEX)
Mon 07:29:08 AM 56.3192 -4.3221 333° Northwest 500 575 30,000  Level FlightAware ADS-B
Mon 07:29:41 AM 56.3867 -4.3851 333° Northwest 500 575 30,000  Level FlightAware ADS-B
Mon 07:30:20 AM 56.4668 -4.4599 333° Northwest 499 574 30,000  Level FlightAware ADS-B
Mon 07:30:55 AM 56.5396 -4.5272 332° Northwest 492 566 30,000  Level FlightAware ADS-B
Mon 07:31:02 AM 56.5439 -4.5330 333° Northwest 500 575 30,000  Level FlightAware ADS-B
Mon 07:31:22 AM 56.5948 -4.5794 332° Northwest 493 567 30,000  Level FlightAware ADS-B (KLEX)
Mon 07:31:44 AM 56.6392 -4.6220 332° Northwest 493 567 30,000  Level FlightAware ADS-B (KLEX)
Mon 07:32:24 AM 56.7209 -4.7000 332° Northwest 501 577 30,000  Level FlightAware ADS-B
Mon 07:32:59 AM 56.7926 -4.7685 332° Northwest 501 577 30,000  Level FlightAware ADS-B
Mon 07:33:21 AM 56.8381 -4.8118 333° Northwest 502 578 30,000  Level FlightAware ADS-B
Mon 07:33:56 AM 56.9091 -4.8808 332° Northwest 502 578 30,000  Level FlightAware ADS-B (EGPH / EDI)
Mon 07:34:30 AM 56.9790 -4.9479 332° Northwest 501 577 30,000  Level FlightAware ADS-B (EGPH / EDI)
Mon 07:35:11 AM 57.0593 -5.0255 332° Northwest 502 578 30,000  Level FlightAware ADS-B (EGPH / EDI)
Mon 07:35:43 AM 57.1287 -5.0935 332° Northwest 503 579 30,000  Level FlightAware ADS-B (EGPH / EDI)
Mon 07:36:23 AM 57.2107 -5.1740 332° Northwest 504 580 30,000  Level FlightAware ADS-B (EGPH / EDI)
Mon 07:36:58 AM 57.2846 -5.2465 332° Northwest 504 580 30,000  Level FlightAware UK
Mon 07:37:08 AM 57.3033 -5.2650 332° Northwest 506 582 30,000  Level FlightAware ADS-B
Mon 07:37:40 AM 57.3711 -5.3319 332° Northwest 506 582 30,000  Level FlightAware UK
Mon 07:37:48 AM 57.3853 -5.3464 332° Northwest 505 581 30,000  Level FlightAware ADS-B (EGPH / EDI)
Mon 07:38:20 AM 57.4525 -5.4119 332° Northwest 505 581 30,000  Level FlightAware ADS-B
Mon 07:38:58 AM 57.5055 -5.4651 332° Northwest 506 582 30,000  Level FlightAware ADS-B
Mon 07:39:39 AM 57.6144 -5.5746 332° Northwest 507 583 30,000  Level FlightAware ADS-B
Mon 07:40:10 AM 57.6797 -5.6408 332° Northwest 506 582 30,000  Level FlightAware UK
Mon 07:40:18 AM 57.6725 -5.6326 332° Northwest 507 583 30,000  Level FlightAware ADS-B
Mon 07:41:03 AM 57.7813 -5.7430 332° Northwest 507 583 30,000  Level FlightAware ADS-B (EGPH / EDI)
Mon 07:41:40 AM 57.8648 -5.8289 332° Northwest 506 582 30,000  Level FlightAware UK
Mon 07:42:10 AM 57.9266 -5.8920 332° Northwest 506 582 30,000  Level FlightAware UK
Mon 07:42:40 AM 57.9882 -5.9553 331° Northwest 508 585 30,000  Level FlightAware UK
Mon 07:43:10 AM 58.0500 -6.0195 331° Northwest 508 585 30,000  Level FlightAware UK
Mon 07:43:52 AM 58.1363 -6.1089 331° Northwest 510 587 30,000  Level FlightAware UK
Mon 07:44:22 AM 58.1979 -6.1738 331° Northwest 510 587 30,000  Level FlightAware UK
Mon 07:44:52 AM 58.2580 -6.2450 328° Northwest 510 587 30,000  Level FlightAware UK
Mon 07:45:22 AM 58.3169 -6.3188 327° Northwest 510 587 30,000  Level FlightAware UK
Mon 07:46:22 AM 58.4350 -6.4659 327° Northwest 512 589 30,000  Level FlightAware UK
Mon 07:46:52 AM 58.4941 -6.5403 327° Northwest 512 589 30,000  Level FlightAware UK
Mon 07:47:22 AM 58.5536 -6.6153 327° Northwest 514 592 30,000  Level FlightAware UK
Mon 07:47:52 AM 58.6132 -6.6909 327° Northwest 516 594 30,000  Level FlightAware UK
Mon 07:48:28 AM 58.6848 -6.7821 327° Northwest 516 594 30,000  Level FlightAware UK
Mon 07:48:58 AM 58.7446 -6.8582 327° Northwest 518 596 30,000  Level FlightAware UK
Mon 07:49:28 AM 58.8044 -6.9349 326° Northwest 518 596 30,000  Level FlightAware UK
Mon 07:49:58 AM 58.8641 -7.0119 326° Northwest 518 596 30,000  Level FlightAware UK
Mon 07:50:28 AM 58.9237 -7.0890 326° Northwest 518 596 30,000  Level FlightAware UK
Mon 07:50:58 AM 58.9833 -7.1662 326° Northwest 516 594 30,000  Level FlightAware UK
Mon 07:51:28 AM 59.0427 -7.2437 326° Northwest 516 594 30,000  Level FlightAware UK
Mon 07:51:58 AM 59.1020 -7.3216 326° Northwest 516 594 30,000  Level FlightAware UK
Mon 07:52:28 AM 59.1613 -7.3995 326° Northwest 518 596 30,000  Level FlightAware UK
Mon 07:52:58 AM 59.2207 -7.4778 326° Northwest 520 598 30,000  Level FlightAware UK
Mon 07:53:28 AM 59.2803 -7.5567 326° Northwest 520 598 30,000  Level FlightAware UK
Mon 07:53:58 AM 59.3400 -7.6364 326° Northwest 522 601 30,000  Level FlightAware UK
Mon 07:54:28 AM 59.3999 -7.7167 326° Northwest 522 601 30,000  Level FlightAware UK
Mon 07:54:58 AM 59.4596 -7.7974 326° Northwest 524 603 30,000  Level FlightAware UK
Mon 07:55:34 AM 59.5311 -7.8937 326° Northwest 524 603 30,000  Level FlightAware UK
Mon 07:56:04 AM 59.5909 -7.9746 326° Northwest 524 603 30,000  Level FlightAware UK
Mon 07:56:34 AM 59.6506 -8.0560 325° Northwest 522 601 30,000  Level FlightAware UK
Mon 07:57:04 AM 59.7100 -8.1377 325° Northwest 522 601 30,000  Level FlightAware UK
Mon 07:57:34 AM 59.7694 -8.2193 325° Northwest 522 601 30,000  Level FlightAware UK
Mon 07:58:04 AM 59.8287 -8.3011 325° Northwest 522 601 30,000  Level FlightAware UK
Mon 07:58:34 AM 59.8879 -8.3830 325° Northwest 520 598 30,000  Level FlightAware UK
Mon 07:59:04 AM 59.9470 -8.4653 325° Northwest 520 598 30,000  Level FlightAware UK
Mon 07:59:34 AM 60.0058 -8.5479 325° Northwest 518 596 30,000 20 Level FlightAware UK
Mon 08:01:00 AM 60.1215 -8.8377 309° West  Level Estimated
Mon 08:08:00 AM 60.6773 -10.2825 309° West  Level Estimated
Mon 08:09:00 AM 60.7554 -10.4930 307° West  Level Estimated
Mon 08:10:00 AM 60.8331 -10.7044 307° West  Level Estimated
Mon 08:11:00 AM 60.9106 -10.9170 307° West  Level Estimated
Mon 08:12:00 AM 60.9877 -11.1305 307° West  Level Estimated
Mon 08:13:00 AM 61.0644 -11.3451 307° West  Level Estimated
Mon 08:14:00 AM 61.1409 -11.5607 306° West  Level Estimated
Mon 08:15:00 AM 61.2169 -11.7774 306° West  Level Estimated
Mon 08:16:00 AM 61.2926 -11.9951 306° West  Level Estimated
Mon 08:17:00 AM 61.3680 -12.2138 306° West  Level Estimated
Mon 08:18:00 AM 61.4431 -12.4337 306° West  Level Estimated
Mon 08:19:00 AM 61.5177 -12.6545 305° West  Level Estimated
Mon 08:20:00 AM 61.5920 -12.8765 305° West  Level Estimated
Mon 08:21:00 AM 61.6660 -13.0995 305° West  Level Estimated
Mon 08:22:00 AM 61.7396 -13.3235 305° West  Level Estimated
Mon 08:23:00 AM 61.8128 -13.5487 305° West  Level Estimated
Mon 08:24:00 AM 61.8856 -13.7749 304° West  Level Estimated
Mon 08:25:00 AM 61.9581 -14.0022 304° West  Level Estimated
Mon 08:26:00 AM 62.0302 -14.2305 304° West  Level Estimated
Mon 08:27:00 AM 62.1019 -14.4600 304° West  Level Estimated
Mon 08:28:00 AM 62.1732 -14.6905 304° West  Level Estimated
Mon 08:29:00 AM 62.2442 -14.9221 303° West  Level Estimated
Mon 08:30:00 AM 62.3148 -15.1549 303° West  Level Estimated
Mon 08:31:00 AM 62.3849 -15.3887 303° West  Level Estimated
Mon 08:32:00 AM 62.4547 -15.6236 303° West  Level Estimated
Mon 08:33:00 AM 62.5241 -15.8596 303° West  Level Estimated
Mon 08:34:00 AM 62.5931 -16.0966 302° West  Level Estimated
Mon 08:35:00 AM 62.6617 -16.3348 302° West  Level Estimated
Mon 08:36:00 AM 62.7298 -16.5741 302° West  Level Estimated
Mon 08:37:00 AM 62.7976 -16.8145 302° West  Level Estimated
Mon 08:38:00 AM 62.8649 -17.0560 302° West  Level Estimated
Mon 08:39:00 AM 62.9319 -17.2986 301° West  Level Estimated
Mon 08:40:00 AM 62.9984 -17.5424 301° West  Level Estimated
Mon 08:41:00 AM 63.0645 -17.7872 301° West  Level Estimated
Mon 08:42:00 AM 63.1302 -18.0331 301° West  Level Estimated
Mon 08:43:00 AM 63.1954 -18.2802 300° West  Level Estimated
Mon 08:44:00 AM 63.2602 -18.5283 300° West  Level Estimated
Mon 08:45:00 AM 63.3246 -18.7776 300° West  Level Estimated
Mon 08:46:00 AM 63.3886 -19.0280 300° West  Level Estimated
Mon 08:47:00 AM 63.4521 -19.2795 300° West  Level Estimated
Mon 08:48:00 AM 63.5151 -19.5321 299° West  Level Estimated
Mon 08:49:00 AM 63.5777 -19.7859 299° West  Level Estimated
Mon 08:50:00 AM 63.6399 -20.0407 299° West  Level Estimated
Mon 08:51:00 AM 63.7016 -20.2967 299° West  Level Estimated
Mon 08:52:00 AM 63.7629 -20.5537 298° West  Level Estimated
Mon 08:53:00 AM 63.8237 -20.8119 298° West  Level Estimated
Mon 08:54:00 AM 63.8840 -21.0713 298° West  Level Estimated
Mon 08:55:00 AM 63.9439 -21.3317 298° West  Level Estimated
Mon 08:56:00 AM 64.0033 -21.5932 297° West  Level Estimated
Mon 08:57:00 AM 64.0622 -21.8558 297° West  Level Estimated
Mon 08:58:00 AM 64.1206 -22.1196 297° West  Level Estimated
Mon 08:59:00 AM 64.1786 -22.3844 297° West  Level Estimated
Mon 09:00:00 AM 64.2361 -22.6504 297° West  Level Estimated
Mon 09:01:00 AM 64.2931 -22.9174 296° West  Level Estimated
Mon 09:02:00 AM 64.3496 -23.1856 296° West  Level Estimated
Mon 09:03:00 AM 64.4056 -23.4549 296° West  Level Estimated
Mon 09:04:00 AM 64.4612 -23.7252 296° West  Level Estimated
Mon 09:05:00 AM 64.5162 -23.9967 295° West  Level Estimated
Mon 09:06:00 AM 64.5707 -24.2692 295° West  Level Estimated
Mon 09:07:00 AM 64.6248 -24.5428 295° West  Level Estimated
Mon 09:08:00 AM 64.6783 -24.8176 295° West  Level Estimated
Mon 09:09:00 AM 64.7313 -25.0933 294° West  Level Estimated
Mon 09:10:00 AM 64.7838 -25.3702 294° West  Level Estimated
Mon 09:11:00 AM 64.8358 -25.6482 294° West  Level Estimated
Mon 09:12:00 AM 64.8872 -25.9272 294° West  Level Estimated
Mon 09:13:00 AM 64.9381 -26.2073 293° West  Level Estimated
Mon 09:14:00 AM 64.9885 -26.4884 293° West  Level Estimated
Mon 09:15:00 AM 65.0384 -26.7706 293° West  Level Estimated
Mon 09:16:00 AM 65.0878 -27.0539 293° West  Level Estimated
Mon 09:17:00 AM 65.1366 -27.3382 292° West  Level Estimated
Mon 09:18:00 AM 65.1848 -27.6235 292° West  Level Estimated
Mon 09:19:00 AM 65.2325 -27.9099 292° West  Level Estimated
Mon 09:20:00 AM 65.2797 -28.1973 292° West  Level Estimated
Mon 09:21:00 AM 65.3263 -28.4858 291° West  Level Estimated
Mon 09:22:00 AM 65.3724 -28.7752 291° West  Level Estimated
Mon 09:23:00 AM 65.4179 -29.0657 291° West  Level Estimated
Mon 09:24:00 AM 65.4629 -29.3571 290° West  Level Estimated
Mon 09:25:00 AM 65.5072 -29.6496 290° West  Level Estimated
Mon 09:26:00 AM 65.5511 -29.9430 290° West  Level Estimated
Mon 09:27:00 AM 65.5943 -30.2375 290° West  Level Estimated
Mon 09:28:00 AM 65.6370 -30.5329 289° West  Level Estimated
Mon 09:29:00 AM 65.6791 -30.8293 289° West  Level Estimated
Mon 09:30:00 AM 65.7207 -31.1266 289° West  Level Estimated
Mon 09:31:00 AM 65.7616 -31.4249 289° West  Level Estimated
Mon 09:32:00 AM 65.8020 -31.7241 288° West  Level Estimated
Mon 09:33:00 AM 65.8418 -32.0243 288° West  Level Estimated
Mon 09:34:00 AM 65.8810 -32.3254 288° West  Level Estimated
Mon 09:35:00 AM 65.9196 -32.6273 288° West  Level Estimated
Mon 09:36:00 AM 65.9576 -32.9302 287° West  Level Estimated
Mon 09:37:00 AM 65.9950 -33.2341 287° West  Level Estimated
Mon 09:38:00 AM 66.0318 -33.5387 287° West  Level Estimated
Mon 09:39:00 AM 66.0680 -33.8443 286° West  Level Estimated
Mon 09:40:00 AM 66.1036 -34.1507 286° West  Level Estimated
Mon 09:41:00 AM 66.1386 -34.4580 286° West  Level Estimated
Mon 09:42:00 AM 66.1730 -34.7661 286° West  Level Estimated
Mon 09:43:00 AM 66.2068 -35.0751 285° West  Level Estimated
Mon 09:44:00 AM 66.2399 -35.3848 285° West  Level Estimated
Mon 09:45:00 AM 66.2725 -35.6954 285° West  Level Estimated
Mon 09:46:00 AM 66.3044 -36.0068 284° West  Level Estimated
Mon 09:47:00 AM 66.3356 -36.3189 284° West  Level Estimated
Mon 09:48:00 AM 66.3663 -36.6319 284° West  Level Estimated
Mon 09:49:00 AM 66.3963 -36.9455 284° West  Level Estimated
Mon 09:50:00 AM 66.4257 -37.2600 283° West  Level Estimated
Mon 09:51:00 AM 66.4545 -37.5751 283° West  Level Estimated
Mon 09:52:00 AM 66.4826 -37.8910 283° West  Level Estimated
Mon 09:53:00 AM 66.5101 -38.2076 282° West  Level Estimated
Mon 09:54:00 AM 66.5370 -38.5249 282° West  Level Estimated
Mon 09:55:00 AM 66.5632 -38.8428 282° West  Level Estimated
Mon 09:56:00 AM 66.5887 -39.1615 282° West  Level Estimated
Mon 09:57:00 AM 66.6136 -39.4807 281° West  Level Estimated
Mon 09:58:00 AM 66.6379 -39.8006 281° West  Level Estimated
Mon 09:59:00 AM 66.6615 -40.1212 281° West  Level Estimated
Mon 10:00:00 AM 66.6845 -40.4423 280° West  Level Estimated
Mon 10:01:00 AM 66.7068 -40.7640 280° West  Level Estimated
Mon 10:02:00 AM 66.7284 -41.0863 280° West  Level Estimated
Mon 10:03:00 AM 66.7494 -41.4091 279° West  Level Estimated
Mon 10:04:00 AM 66.7698 -41.7325 279° West  Level Estimated
Mon 10:05:00 AM 66.7894 -42.0564 279° West  Level Estimated
Mon 10:06:00 AM 66.8084 -42.3809 279° West  Level Estimated
Mon 10:07:00 AM 66.8268 -42.7058 278° West  Level Estimated
Mon 10:08:00 AM 66.8444 -43.0312 278° West  Level Estimated
Mon 10:09:00 AM 66.8614 -43.3571 278° West  Level Estimated
Mon 10:10:00 AM 66.8777 -43.6834 277° West  Level Estimated
Mon 10:11:00 AM 66.8934 -44.0101 277° West  Level Estimated
Mon 10:12:00 AM 66.9084 -44.3372 277° West  Level Estimated
Mon 10:13:00 AM 66.9227 -44.6648 277° West  Level Estimated
Mon 10:14:00 AM 66.9363 -44.9927 276° West  Level Estimated
Mon 10:15:00 AM 66.9493 -45.3209 276° West  Level Estimated
Mon 10:16:00 AM 66.9615 -45.6495 276° West  Level Estimated
Mon 10:17:00 AM 66.9731 -45.9785 275° West  Level Estimated
Mon 10:18:00 AM 66.9841 -46.3077 275° West  Level Estimated
Mon 10:19:00 AM 66.9943 -46.6372 275° West  Level Estimated
Mon 10:20:00 AM 67.0038 -46.9670 274° West  Level Estimated
Mon 10:21:00 AM 67.0127 -47.2970 274° West  Level Estimated
Mon 10:22:00 AM 67.0209 -47.6273 274° West  Level Estimated
Mon 10:23:00 AM 67.0284 -47.9578 273° West  Level Estimated
Mon 10:24:00 AM 67.0352 -48.2884 273° West  Level Estimated
Mon 10:25:00 AM 67.0413 -48.6193 273° West  Level Estimated
Mon 10:26:00 AM 67.0468 -48.9503 273° West  Level Estimated
Mon 10:27:00 AM 67.0515 -49.2815 272° West  Level Estimated
Mon 10:28:00 AM 67.0556 -49.6127 272° West  Level Estimated
Mon 10:29:00 AM 67.0590 -49.9441 272° West  Level Estimated
Mon 10:30:00 AM 67.0617 -50.2756 271° West  Level Estimated
Mon 10:31:00 AM 67.0637 -50.6071 271° West  Level Estimated
Mon 10:32:00 AM 67.0650 -50.9386 271° West  Level Estimated
Mon 10:33:00 AM 67.0656 -51.2702 270° West  Level Estimated
Mon 10:34:00 AM 67.0656 -51.6018 270° West  Level Estimated
Mon 10:35:00 AM 67.0648 -51.9334 270° West  Level Estimated
Mon 10:36:00 AM 67.0634 -52.2650 270° West  Level Estimated
Mon 10:37:00 AM 67.0612 -52.5965 269° West  Level Estimated
Mon 10:38:00 AM 67.0584 -52.9279 269° West  Level Estimated
Mon 10:39:00 AM 67.0549 -53.2593 269° West  Level Estimated
Mon 10:40:00 AM 67.0507 -53.5905 268° West  Level Estimated
Mon 10:41:00 AM 67.0458 -53.9216 268° West  Level Estimated
Mon 10:42:00 AM 67.0403 -54.2526 268° West  Level Estimated
Mon 10:43:00 AM 67.0340 -54.5834 267° West  Level Estimated
Mon 10:44:00 AM 67.0271 -54.9141 267° West  Level Estimated
Mon 10:45:00 AM 67.0195 -55.2445 267° West  Level Estimated
Mon 10:46:00 AM 67.0111 -55.5747 266° West  Level Estimated
Mon 10:47:00 AM 67.0022 -55.9047 266° West  Level Estimated
Mon 10:48:00 AM 66.9925 -56.2345 266° West  Level Estimated
Mon 10:49:00 AM 66.9821 -56.5639 266° West  Level Estimated
Mon 10:50:00 AM 66.9711 -56.8931 265° West  Level Estimated
Mon 10:51:00 AM 66.9594 -57.2220 265° West  Level Estimated
Mon 10:52:00 AM 66.9470 -57.5505 265° West  Level Estimated
Mon 10:53:00 AM 66.9339 -57.8787 264° West  Level Estimated
Mon 10:54:00 AM 66.9201 -58.2066 264° West  Level Estimated
Mon 10:55:00 AM 66.9050 -58.5494 264° West  Level Estimated
Mon 10:56:00 AM 66.8891 -58.8918 263° West  Level Estimated
Mon 10:57:00 AM 66.8725 -59.2338 263° West  Level Estimated
Mon 10:58:00 AM 66.8552 -59.5753 263° West  Level Estimated
Mon 10:59:00 AM 66.8371 -59.9163 262° West  Level Estimated
Mon 11:00:00 AM 66.8183 -60.2568 262° West  Level Estimated
Mon 11:01:00 AM 66.7988 -60.5967 262° West  Level Estimated
Mon 11:02:00 AM 66.7785 -60.9362 262° West  Level Estimated
Mon 11:03:00 AM 66.7575 -61.2750 261° West  Level Estimated
Mon 11:04:00 AM 66.7358 -61.6133 261° West  Level Estimated
Mon 11:05:00 AM 66.7134 -61.9509 261° West  Level Estimated
Mon 11:06:00 AM 66.6902 -62.2879 260° West  Level Estimated
Mon 11:07:00 AM 66.6663 -62.6243 260° West  Level Estimated
Mon 11:08:00 AM 66.6417 -62.9600 260° West  Level Estimated
Mon 11:09:00 AM 66.6164 -63.2951 259° West  Level Estimated
Mon 11:10:00 AM 66.5904 -63.6294 259° West  Level Estimated
Mon 11:11:00 AM 66.5637 -63.9630 259° West  Level Estimated
Mon 11:12:00 AM 66.5362 -64.2960 258° West  Level Estimated
Mon 11:13:00 AM 66.5081 -64.6281 258° West  Level Estimated
Mon 11:14:00 AM 66.4792 -64.9595 258° West  Level Estimated
Mon 11:15:00 AM 66.4497 -65.2902 258° West  Level Estimated
Mon 11:16:00 AM 66.4194 -65.6200 257° West  Level Estimated
Mon 11:17:00 AM 66.3885 -65.9490 257° West  Level Estimated
Mon 11:18:00 AM 66.3568 -66.2773 257° West  Level Estimated
Mon 11:19:00 AM 66.3245 -66.6046 256° West  Level Estimated
Mon 11:20:00 AM 66.2915 -66.9312 256° West  Level Estimated
Mon 11:21:00 AM 66.2578 -67.2568 256° West  Level Estimated
Mon 11:22:00 AM 66.2234 -67.5816 255° West  Level Estimated
Mon 11:23:00 AM 66.1884 -67.9055 255° West  Level Estimated
Mon 11:24:00 AM 66.1527 -68.2285 255° West  Level Estimated
Mon 11:25:00 AM 66.1163 -68.5506 255° West  Level Estimated
Mon 11:26:00 AM 66.0792 -68.8717 254° West  Level Estimated
Mon 11:27:00 AM 66.0415 -69.1919 254° West  Level Estimated
Mon 11:28:00 AM 66.0031 -69.5112 254° West  Level Estimated
Mon 11:29:00 AM 65.9640 -69.8294 253° West  Level Estimated
Mon 11:30:00 AM 65.9243 -70.1467 253° West  Level Estimated
Mon 11:31:00 AM 65.8840 -70.4630 253° West  Level Estimated
Mon 11:32:00 AM 65.8430 -70.7783 253° West  Level Estimated
Mon 11:33:00 AM 65.8013 -71.0926 252° West  Level Estimated
Mon 11:34:00 AM 65.7590 -71.4059 252° West  Level Estimated
Mon 11:35:00 AM 65.7161 -71.7181 252° West  Level Estimated
Mon 11:36:00 AM 65.6725 -72.0293 251° West  Level Estimated
Mon 11:37:00 AM 65.6283 -72.3394 251° West  Level Estimated
Mon 11:38:00 AM 65.5835 -72.6485 251° West  Level Estimated
Mon 11:39:00 AM 65.5380 -72.9565 251° West  Level Estimated
Mon 11:40:00 AM 65.4919 -73.2634 250° West  Level Estimated
Mon 11:41:00 AM 65.4452 -73.5693 250° West  Level Estimated
Mon 11:42:00 AM 65.3979 -73.8740 250° West  Level Estimated
Mon 11:43:00 AM 65.3500 -74.1777 249° West  Level Estimated
Mon 11:44:00 AM 65.3015 -74.4802 249° West  Level Estimated
Mon 11:45:00 AM 65.2523 -74.7816 249° West  Level Estimated
Mon 11:46:00 AM 65.2026 -75.0818 249° West  Level Estimated
Mon 11:47:00 AM 65.1523 -75.3810 248° West  Level Estimated
Mon 11:48:00 AM 65.1013 -75.6790 248° West  Level Estimated
Mon 11:49:00 AM 65.0498 -75.9759 248° West  Level Estimated
Mon 11:50:00 AM 64.9977 -76.2716 247° West  Level Estimated
Mon 11:51:00 AM 64.9450 -76.5661 247° West  Level Estimated
Mon 11:52:00 AM 64.8918 -76.8595 247° West  Level Estimated
Mon 11:53:00 AM 64.8379 -77.1517 247° West  Level Estimated
Mon 11:54:00 AM 64.7835 -77.4428 246° West  Level Estimated
Mon 11:55:00 AM 64.7286 -77.7326 246° West  Level Estimated
Mon 11:56:00 AM 64.6730 -78.0213 246° West  Level Estimated
Mon 11:57:00 AM 64.6169 -78.3088 246° West  Level Estimated
Mon 11:58:00 AM 64.5603 -78.5951 245° Southwest  Level Estimated
Mon 11:59:00 AM 64.5031 -78.8803 245° Southwest  Level Estimated
Mon 12:00:00 PM 64.4453 -79.1642 245° Southwest  Level Estimated
Mon 12:01:00 PM 64.3870 -79.4469 245° Southwest  Level Estimated
Mon 12:02:00 PM 64.3281 -79.7284 244° Southwest  Level Estimated
Mon 12:03:00 PM 64.2688 -80.0087 244° Southwest  Level Estimated
Mon 12:04:00 PM 64.2088 -80.2878 244° Southwest  Level Estimated
Mon 12:05:00 PM 64.1484 -80.5657 244° Southwest  Level Estimated
Mon 12:06:00 PM 64.0874 -80.8424 243° Southwest  Level Estimated
Mon 12:07:00 PM 64.0259 -81.1179 243° Southwest  Level Estimated
Mon 12:08:00 PM 63.9639 -81.3921 243° Southwest  Level Estimated
Mon 12:09:00 PM 63.9014 -81.6651 243° Southwest  Level Estimated
Mon 12:10:00 PM 63.8383 -81.9370 242° Southwest  Level Estimated
Mon 12:11:00 PM 63.7748 -82.2076 242° Southwest  Level Estimated
Mon 12:12:00 PM 63.7107 -82.4769 242° Southwest  Level Estimated
Mon 12:13:00 PM 63.6462 -82.7451 242° Southwest  Level Estimated
Mon 12:14:00 PM 63.5811 -83.0120 241° Southwest  Level Estimated
Mon 12:15:00 PM 63.5156 -83.2777 241° Southwest  Level Estimated
Mon 12:16:00 PM 63.4495 -83.5422 241° Southwest  Level Estimated
Mon 12:17:00 PM 63.3830 -83.8055 241° Southwest  Level Estimated
Mon 12:18:00 PM 63.3160 -84.0675 240° Southwest  Level Estimated
Mon 12:19:00 PM 63.2485 -84.3283 240° Southwest  Level Estimated
Mon 12:20:00 PM 63.1806 -84.5879 240° Southwest  Level Estimated
Mon 12:21:00 PM 63.1121 -84.8463 240° Southwest  Level Estimated
Mon 12:22:00 PM 63.0433 -85.1035 240° Southwest  Level Estimated
Mon 12:23:00 PM 62.9739 -85.3594 239° Southwest  Level Estimated
Mon 12:24:00 PM 62.9041 -85.6141 239° Southwest  Level Estimated
Mon 12:25:00 PM 62.8338 -85.8677 239° Southwest  Level Estimated
Mon 12:26:00 PM 62.7631 -86.1199 239° Southwest  Level Estimated
Mon 12:27:00 PM 62.6919 -86.3710 238° Southwest  Level Estimated
Mon 12:28:00 PM 62.6203 -86.6209 238° Southwest  Level Estimated
Mon 12:29:00 PM 62.5482 -86.8696 238° Southwest  Level Estimated
Mon 12:30:00 PM 62.4757 -87.1171 238° Southwest  Level Estimated
Mon 12:31:00 PM 62.4027 -87.3633 237° Southwest  Level Estimated
Mon 12:32:00 PM 62.3293 -87.6084 237° Southwest  Level Estimated
Mon 12:33:00 PM 62.2555 -87.8523 237° Southwest  Level Estimated
Mon 12:34:00 PM 62.1813 -88.0949 237° Southwest  Level Estimated
Mon 12:35:00 PM 62.1067 -88.3364 237° Southwest  Level Estimated
Mon 12:36:00 PM 62.0316 -88.5767 236° Southwest  Level Estimated
Mon 12:37:00 PM 61.9561 -88.8158 236° Southwest  Level Estimated
Mon 12:38:00 PM 61.8802 -89.0537 236° Southwest  Level Estimated
Mon 12:39:00 PM 61.8039 -89.2905 236° Southwest  Level Estimated
Mon 12:40:00 PM 61.7272 -89.5261 236° Southwest  Level Estimated
Mon 12:41:00 PM 61.6500 -89.7605 235° Southwest  Level Estimated
Mon 12:42:00 PM 61.5725 -89.9937 235° Southwest  Level Estimated
Mon 12:43:00 PM 61.4946 -90.2257 235° Southwest  Level Estimated
Mon 12:44:00 PM 61.4163 -90.4566 235° Southwest  Level Estimated
Mon 12:45:00 PM 61.3376 -90.6864 235° Southwest  Level Estimated
Mon 12:46:00 PM 61.2585 -90.9149 234° Southwest  Level Estimated
Mon 12:47:00 PM 61.1791 -91.1424 234° Southwest  Level Estimated
Mon 12:48:00 PM 61.0992 -91.3687 234° Southwest  Level Estimated
Mon 12:49:00 PM 61.0190 -91.5938 234° Southwest  Level Estimated
Mon 12:50:00 PM 60.9384 -91.8178 234° Southwest  Level Estimated
Mon 12:51:00 PM 60.8575 -92.0407 233° Southwest  Level Estimated
Mon 12:52:00 PM 60.7761 -92.2624 233° Southwest  Level Estimated
Mon 12:53:00 PM 60.6945 -92.4831 233° Southwest  Level Estimated
Mon 12:54:00 PM 60.6124 -92.7026 233° Southwest  Level Estimated
Mon 12:54:50 PM 61.8500 -102.0000 231° Southwest 500 575 36,000  Level Edmonton Center
Mon 12:55:00 PM 60.5300 -92.9209 233° Southwest  Level Estimated
Mon 12:55:50 PM 61.7333 -102.2000 219° Southwest 500 575 36,000  Level Edmonton Center
Mon 12:56:00 PM 60.4472 -93.1382 232° Southwest  Level Estimated
Mon 12:56:50 PM 61.6167 -102.3500 211° Southwest 500 575 36,000  Level Edmonton Center
Mon 12:57:00 PM 60.3641 -93.3544 232° Southwest  Level Estimated
Mon 12:57:50 PM 61.5000 -102.5333 217° Southwest 500 575 36,000  Level Edmonton Center
Mon 12:58:00 PM 60.2807 -93.5694 232° Southwest  Level Estimated
Mon 12:58:50 PM 61.3833 -102.7167 217° Southwest 500 575 36,000  Level Edmonton Center
Mon 12:59:00 PM 60.1968 -93.7834 232° Southwest  Level Estimated
Mon 12:59:50 PM 61.2833 -102.9000 221° Southwest 500 575 36,000  Level Edmonton Center
Mon 01:00:00 PM 60.1127 -93.9963 232° Southwest  Level Estimated
Mon 01:00:50 PM 61.1667 -103.0500 212° Southwest 500 575 36,000  Level Edmonton Center
Mon 01:01:00 PM 60.0282 -94.2081 231° Southwest  Level Estimated
Mon 01:01:50 PM 61.0500 -103.2333 217° Southwest 490 564 36,000  Level Edmonton Center
Mon 01:02:50 PM 60.9500 -103.4167 222° Southwest 490 564 36,000  Level Edmonton Center
Mon 01:03:50 PM 60.8333 -103.5667 212° Southwest 490 564 36,000  Level Edmonton Center
Mon 01:04:50 PM 60.7333 -103.7833 227° Southwest 490 564 36,000  Level Edmonton Center
Mon 01:05:50 PM 60.6333 -103.9833 224° Southwest 490 564 36,000  Level Edmonton Center
Mon 01:06:50 PM 60.5333 -104.1667 222° Southwest 490 564 36,000  Level Edmonton Center
Mon 01:07:50 PM 60.4500 -104.3667 230° Southwest 490 564 36,000  Level Edmonton Center
Mon 01:08:50 PM 60.3500 -104.5833 227° Southwest 490 564 36,000  Level Edmonton Center
Mon 01:09:50 PM 60.2500 -104.7833 225° Southwest 490 564 36,000  Level Edmonton Center
Mon 01:10:50 PM 60.1500 -105.0000 227° Southwest 490 564 36,000  Level Edmonton Center
Mon 01:11:50 PM 60.0500 -105.2000 225° Southwest 490 564 36,000  Level Edmonton Center
Mon 01:12:50 PM 59.9333 -105.3667 216° Southwest 490 564 36,000 50 Level Edmonton Center
Mon 01:13:50 PM 59.8500 -105.5667 230° Southwest 490 564 36,100 550 Climbing Edmonton Center
Mon 01:14:50 PM 59.7500 -105.7667 225° Southwest 490 564 37,100 950 Climbing Edmonton Center
Mon 01:15:50 PM 59.6500 -105.9667 225° Southwest 500 575 38,000 450 Climbing Edmonton Center
Mon 01:16:50 PM 59.5500 -106.1667 225° Southwest 500 575 38,000  Level Edmonton Center
Mon 01:17:50 PM 59.4500 -106.3333 220° Southwest 500 575 38,000  Level Edmonton Center
Mon 01:18:50 PM 59.3500 -106.5167 223° Southwest 490 564 38,000  Level Edmonton Center
Mon 01:19:50 PM 59.2500 -106.7167 226° Southwest 490 564 38,000  Level Edmonton Center
Mon 01:20:50 PM 59.1500 -106.9167 226° Southwest 490 564 38,000  Level Edmonton Center
Mon 01:21:50 PM 59.0333 -107.1000 219° Southwest 490 564 38,000  Level Edmonton Center
Mon 01:22:50 PM 58.9333 -107.3000 226° Southwest 490 564 38,000  Level Edmonton Center
Mon 01:23:50 PM 58.8500 -107.4833 229° Southwest 490 564 38,000  Level Edmonton Center
Mon 01:24:50 PM 58.7500 -107.6333 218° Southwest 490 564 38,000  Level Edmonton Center
Mon 01:25:50 PM 58.6333 -107.8333 222° Southwest 490 564 38,000  Level Edmonton Center
Mon 01:26:50 PM 58.5333 -108.0167 224° Southwest 490 564 38,000  Level Edmonton Center
Mon 01:27:50 PM 58.4500 -108.1667 223° Southwest 490 564 38,000  Level Edmonton Center
Mon 01:28:50 PM 58.3333 -108.3500 220° Southwest 490 564 38,000  Level Edmonton Center
Mon 01:29:50 PM 58.2333 -108.5333 224° Southwest 490 564 38,000  Level Edmonton Center
Mon 01:30:50 PM 58.1333 -108.7167 224° Southwest 490 564 38,000  Level Edmonton Center
Mon 01:31:50 PM 58.0167 -108.9000 220° Southwest 490 564 38,000  Level Edmonton Center
Mon 01:32:50 PM 57.9167 -109.0833 224° Southwest 490 564 38,000  Level Edmonton Center
Mon 01:33:50 PM 57.8167 -109.2333 219° Southwest 490 564 38,000  Level Edmonton Center
Mon 01:34:50 PM 57.7167 -109.4000 222° Southwest 480 552 38,000  Level Edmonton Center
Mon 01:35:50 PM 57.6167 -109.5833 225° Southwest 480 552 38,000  Level Edmonton Center
Mon 01:36:50 PM 57.5167 -109.7333 219° Southwest 490 564 38,000  Level Edmonton Center
Mon 01:37:50 PM 57.4167 -109.9167 225° Southwest 480 552 38,000  Level Edmonton Center
Mon 01:38:50 PM 57.3167 -110.0833 222° Southwest 480 552 38,000  Level Edmonton Center
Mon 01:39:50 PM 57.2000 -110.2500 218° Southwest 480 552 38,000  Level Edmonton Center
Mon 01:40:50 PM 57.1167 -110.4000 224° Southwest 480 552 38,000  Level Edmonton Center
Mon 01:41:50 PM 57.0000 -110.5667 218° Southwest 480 552 38,000  Level Edmonton Center
Mon 01:42:50 PM 56.8833 -110.7333 218° Southwest 480 552 38,000  Level Edmonton Center
Mon 01:43:50 PM 56.8000 -110.8833 225° Southwest 480 552 38,000  Level Edmonton Center
Mon 01:44:50 PM 56.6833 -111.0500 218° Southwest 480 552 38,000  Level Edmonton Center
Mon 01:45:50 PM 56.5833 -111.1833 216° Southwest 480 552 38,000  Level Edmonton Center
Mon 01:46:50 PM 56.4500 -111.2833 203° Southwest 490 564 38,000  Level Edmonton Center
Mon 01:47:50 PM 56.3333 -111.3833 205° Southwest 480 552 38,000  Level Edmonton Center
Mon 01:48:50 PM 56.2167 -111.5000 209° Southwest 470 541 38,000  Level Edmonton Center
Mon 01:49:50 PM 56.1000 -111.6000 206° Southwest 480 552 38,000  Level Edmonton Center
Mon 01:50:50 PM 55.9667 -111.7000 203° Southwest 480 552 38,000  Level Edmonton Center
Mon 01:51:50 PM 55.8500 -111.8167 209° Southwest 480 552 38,000  Level Edmonton Center
Mon 01:52:50 PM 55.7167 -111.9000 199° South 480 552 38,000  Level Edmonton Center
Mon 01:53:50 PM 55.6167 -112.0000 209° Southwest 480 552 38,000  Level Edmonton Center
Mon 01:54:50 PM 55.4833 -112.1167 206° Southwest 480 552 38,000  Level Edmonton Center
Mon 01:55:50 PM 55.3667 -112.2167 206° Southwest 480 552 38,000  Level Edmonton Center
Mon 01:56:50 PM 55.2333 -112.3167 203° Southwest 480 552 38,000  Level Edmonton Center
Mon 02:03:04 PM 54.4963 -112.8870 204° Southwest 482 555 38,000  Level FlightAware ADS-B
Mon 02:03:35 PM 54.4322 -112.9370 204° Southwest 482 555 38,000  Level FlightAware ADS-B
Mon 02:04:18 PM 54.3409 -113.0070 204° Southwest 481 554 38,000  Level FlightAware ADS-B
Mon 02:04:50 PM 54.2759 -113.0568 204° Southwest 480 552 38,000  Level FlightAware ADS-B
Mon 02:05:20 PM 54.2166 -113.1014 204° Southwest 480 552 38,000  Level FlightAware ADS-B
Mon 02:05:51 PM 54.1679 -113.1384 204° Southwest 479 551 38,000  Level FlightAware ADS-B
Mon 02:06:33 PM 54.0713 -113.2118 204° Southwest 477 549 38,000  Level FlightAware ADS-B
Mon 02:07:06 PM 54.0020 -113.2650 204° Southwest 476 548 38,000  Level FlightAware ADS-B
Mon 02:07:49 PM 53.9158 -113.3299 204° Southwest 475 547 38,000  Level FlightAware ADS-B
Mon 02:08:21 PM 53.8516 -113.3777 204° Southwest 474 545 38,000  Level FlightAware ADS-B
Mon 02:08:51 PM 53.7920 -113.4224 204° Southwest 472 543 38,000  Level FlightAware ADS-B
Mon 02:09:21 PM 53.7324 -113.4655 204° Southwest 471 542 38,000  Level FlightAware ADS-B
Mon 02:10:05 PM 53.6429 -113.5317 204° Southwest 470 541 38,000  Level FlightAware ADS-B
Mon 02:10:36 PM 53.5820 -113.5770 204° Southwest 468 539 38,000  Level FlightAware ADS-B
Mon 02:11:21 PM 53.4944 -113.6413 204° Southwest 467 537 38,000  Level FlightAware ADS-B
Mon 02:11:51 PM 53.4403 -113.6817 204° Southwest 467 537 38,000  Level FlightAware ADS-B
Mon 02:12:36 PM 53.3471 -113.7494 203° Southwest 466 536 38,000  Level FlightAware ADS-B
Mon 02:13:06 PM 53.2866 -113.7936 204° Southwest 466 536 38,000  Level FlightAware ADS-B
Mon 02:13:50 PM 53.1999 -113.8598 205° Southwest 465 535 38,000  Level FlightAware ADS-B
Mon 02:14:35 PM 53.1134 -113.9316 208° Southwest 464 534 38,000  Level FlightAware ADS-B
Mon 02:15:05 PM 53.0567 -113.9809 207° Southwest 464 534 38,000  Level FlightAware ADS-B
Mon 02:15:35 PM 52.9989 -114.0296 207° Southwest 466 536 38,000  Level FlightAware ADS-B
Mon 02:16:05 PM 52.9578 -114.0651 207° Southwest 467 537 38,000  Level FlightAware ADS-B
Mon 02:16:35 PM 52.8843 -114.1259 207° Southwest 467 537 38,000  Level FlightAware ADS-B
Mon 02:17:05 PM 52.8288 -114.1705 206° Southwest 466 536 38,000  Level FlightAware ADS-B
Mon 02:17:35 PM 52.7678 -114.2212 207° Southwest 464 534 38,000  Level FlightAware ADS-B
Mon 02:18:06 PM 52.7090 -114.2699 207° Southwest 462 532 38,000  Level FlightAware ADS-B
Mon 02:18:50 PM 52.6000 -114.3667 207° Southwest 460 529 38,000  Level Edmonton Center
Mon 02:19:50 PM 52.4833 -114.4500 204° Southwest 460 529 38,000  Level Edmonton Center
Mon 02:20:50 PM 52.3667 -114.5667 211° Southwest 460 529 38,000  Level Edmonton Center
Mon 02:21:50 PM 52.2500 -114.6500 204° Southwest 470 541 38,000  Level Edmonton Center
Mon 02:22:50 PM 52.1500 -114.7333 207° Southwest 470 541 38,000  Level Edmonton Center
Mon 02:23:50 PM 52.0167 -114.8500 208° Southwest 470 541 38,000  Level Edmonton Center
Mon 02:24:50 PM 51.9167 -114.9333 207° Southwest 470 541 38,000  Level Edmonton Center
Mon 02:25:50 PM 51.7833 -115.0333 205° Southwest 470 541 38,000  Level Edmonton Center
Mon 02:26:50 PM 51.6667 -115.1167 204° Southwest 470 541 38,000  Level Edmonton Center
Mon 02:27:50 PM 51.5500 -115.2000 204° Southwest 460 529 38,000  Level Edmonton Center
Mon 02:28:50 PM 51.4333 -115.2833 204° Southwest 460 529 38,000  Level Edmonton Center
Mon 02:29:50 PM 51.3167 -115.3833 208° Southwest 450 518 38,000  Level Edmonton Center
Mon 02:30:50 PM 51.2167 -115.4667 208° Southwest 450 518 38,000  Level Edmonton Center
Mon 02:31:50 PM 51.1000 -115.5500 204° Southwest 450 518 38,000  Level Edmonton Center
Mon 02:32:50 PM 50.9833 -115.6333 204° Southwest 450 518 38,000  Level Edmonton Center
Mon 02:33:56 PM 50.8667 -115.6667 190° South 460 529 38,000  Level Vancouver Center
Mon 02:34:56 PM 50.7500 -115.7667 208° Southwest 470 541 38,000  Level Vancouver Center
Mon 02:35:56 PM 50.6333 -115.8333 200° South 470 541 38,000  Level Vancouver Center
Mon 02:36:56 PM 50.5000 -115.9333 206° Southwest 470 541 38,000  Level Vancouver Center
Mon 02:37:56 PM 50.4000 -116.0333 213° Southwest 480 552 38,000  Level Vancouver Center
Mon 02:38:50 PM 50.2833 -116.1500 213° Southwest 470 541 38,000  Level Edmonton Center
Mon 02:39:50 PM 50.1500 -116.2500 206° Southwest 470 541 38,000  Level Edmonton Center
Mon 02:40:50 PM 50.0333 -116.3333 205° Southwest 480 552 38,000  Level Edmonton Center
Mon 02:41:50 PM 49.9000 -116.4333 206° Southwest 470 541 38,000  Level Edmonton Center
Mon 02:42:50 PM 49.8000 -116.5000 203° Southwest 480 552 38,000  Level Edmonton Center
Mon 02:43:50 PM 49.6667 -116.6000 206° Southwest 480 552 38,000  Level Edmonton Center
Mon 02:44:50 PM 49.5333 -116.6833 202° Southwest 480 552 38,000  Level Edmonton Center
Mon 02:45:50 PM 49.4333 -116.7833 213° Southwest 470 541 38,000  Level Edmonton Center
Mon 02:46:50 PM 49.3000 -116.8500 198° South 480 552 38,000  Level Edmonton Center
Mon 02:47:56 PM 49.1833 -116.9000 196° South 470 541 38,000  Level Vancouver Center
Mon 02:48:56 PM 49.0667 -116.9667 201° Southwest 470 541 38,000  Level Vancouver Center
Mon 02:49:56 PM 48.9500 -117.0500 205° Southwest 460 529 38,000  Level Vancouver Center
Mon 02:50:56 PM 48.8333 -117.1167 201° Southwest 450 518 38,000  Level Vancouver Center
Mon 02:51:49 PM 48.7644 -117.2244 226° Southwest 453 521 38,000  Level Seattle Center
Mon 02:52:50 PM 48.6506 -117.3031 205° Southwest 451 519 38,000  Level Seattle Center
Mon 02:53:51 PM 48.5375 -117.3786 204° Southwest 449 517 38,000  Level Seattle Center
Mon 02:54:52 PM 48.4239 -117.4567 205° Southwest 449 517 38,000 -49 Level Seattle Center
Mon 02:55:53 PM 48.3097 -117.5325 204° Southwest 451 519 37,900  Descending Seattle Center
Mon 02:56:54 PM 48.1961 -117.6086 204° Southwest 451 519 38,000 49 Climbing Seattle Center
Mon 02:57:55 PM 48.0594 -117.6997 204° Southwest 451 519 38,000  Level Seattle Center
Mon 02:58:56 PM 47.9447 -117.7750 204° Southwest 453 521 38,000  Level Seattle Center
Mon 02:59:57 PM 47.8300 -117.8519 204° Southwest 454 522 38,000  Level Seattle Center
Mon 03:00:58 PM 47.7147 -117.9261 203° Southwest 456 525 38,000  Level Seattle Center
Mon 03:01:59 PM 47.5997 -118.0025 204° Southwest 455 524 38,000  Level Seattle Center
Mon 03:03:00 PM 47.4844 -118.0775 204° Southwest 457 526 38,000  Level Seattle Center
Mon 03:04:01 PM 47.3692 -118.1508 203° Southwest 455 524 38,000  Level Seattle Center
Mon 03:05:02 PM 47.2544 -118.2256 204° Southwest 454 522 38,000  Level Seattle Center
Mon 03:06:03 PM 47.1403 -118.2989 204° Southwest 452 520 38,000  Level Seattle Center
Mon 03:07:04 PM 47.0233 -118.3717 203° Southwest 457 526 38,000 -49 Level Seattle Center
Mon 03:08:05 PM 46.8861 -118.4617 204° Southwest 454 522 37,900 246 Descending Seattle Center
Mon 03:09:06 PM 46.7700 -118.5342 203° Southwest 454 522 38,500 541 Climbing Seattle Center
Mon 03:10:07 PM 46.6533 -118.6075 203° Southwest 458 527 39,000 248 Climbing Seattle Center
Mon 03:11:07 PM 46.5389 -118.6803 204° Southwest 454 522 39,000  Level Seattle Center
Mon 03:12:08 PM 46.4214 -118.7508 202° Southwest 456 525 39,000  Level Seattle Center
Mon 03:13:09 PM 46.3061 -118.8228 203° Southwest 454 522 39,000  Level Seattle Center
Mon 03:14:10 PM 46.1881 -118.8939 203° Southwest 451 519 39,000  Level Seattle Center
Mon 03:15:11 PM 46.0744 -118.9628 203° Southwest 448 516 39,000  Level Seattle Center
Mon 03:21:11 PM 45.3685 -119.3857 203° Southwest 456 525 39,000  Level FlightAware ADS-B (SBFL / FLN)
Mon 03:23:55 PM 45.0471 -119.5763 203° Southwest 460 529 39,000  Level FlightAware ADS-B (SBFL / FLN)
Mon 03:24:32 PM 44.9750 -119.6188 202° Southwest 461 531 39,000  Level FlightAware ADS-B (SBFL / FLN)
Mon 03:25:20 PM 44.8869 -119.6722 202° Southwest 458 527 39,000  Level Seattle Center
Mon 03:26:21 PM 44.7681 -119.7406 202° Southwest 456 525 39,000  Level Seattle Center
Mon 03:27:22 PM 44.6478 -119.8100 202° Southwest 461 531 39,000  Level Seattle Center
Mon 03:32:46 PM 44.0017 -120.1770 202° Southwest 460 529 39,000  Level FlightAware ADS-B (SBFL / FLN)
Mon 03:33:28 PM 43.9394 -120.2133 202° Southwest 457 526 39,000  Level Seattle Center
Mon 03:34:29 PM 43.8175 -120.2814 202° Southwest 464 534 39,000  Level Seattle Center
Mon 03:35:30 PM 43.7011 -120.3506 203° Southwest 458 527 39,000  Level Seattle Center
Mon 03:36:31 PM 43.5689 -120.4225 202° Southwest 459 528 39,000  Level Seattle Center
Mon 03:37:32 PM 43.4517 -120.4867 202° Southwest 453 521 39,000  Level Seattle Center
Mon 03:38:33 PM 43.3361 -120.5500 202° Southwest 450 518 39,000  Level Seattle Center
Mon 03:39:34 PM 43.2175 -120.6161 202° Southwest 457 526 39,000  Level Seattle Center
Mon 03:40:34 PM 43.1003 -120.6789 201° Southwest 456 525 39,000  Level Seattle Center
Mon 03:41:35 PM 42.9844 -120.7439 202° Southwest 452 520 39,000  Level Seattle Center
Mon 03:42:36 PM 42.8664 -120.8061 201° Southwest 454 522 39,000  Level Seattle Center
Mon 03:43:37 PM 42.7483 -120.8697 202° Southwest 455 524 39,000  Level Seattle Center
Mon 03:44:38 PM 42.6306 -120.9333 202° Southwest 458 527 39,000  Level Seattle Center
Mon 03:45:39 PM 42.5125 -120.9964 201° Southwest 455 524 39,000  Level Seattle Center
Mon 03:46:40 PM 42.3956 -121.0592 202° Southwest 451 519 39,000  Level Seattle Center
Mon 03:47:41 PM 42.2794 -121.1208 201° Southwest 447 514 39,000  Level Seattle Center
Mon 03:48:42 PM 42.1400 -121.1947 201° Southwest 443 510 39,000  Level Seattle Center
Mon 03:49:43 PM 42.0244 -121.2567 202° Southwest 444 511 39,000  Level Seattle Center
Mon 03:50:44 PM 41.9097 -121.3156 201° Southwest 438 504 39,000  Level Seattle Center
Mon 03:51:45 PM 41.7950 -121.3772 202° Southwest 440 506 39,000  Level Seattle Center
Mon 03:52:46 PM 41.6794 -121.4375 201° Southwest 441 507 39,000  Level Seattle Center
Mon 03:57:35 PM 41.1219 -121.7216 201° Southwest 39,000  Level FlightAware ADS-B (KSAC)
Mon 03:58:07 PM 41.0504 -121.7584 201° Southwest 451 519 39,000  Level FlightAware ADS-B
Mon 03:58:40 PM 40.9872 -121.7912 201° Southwest 453 521 39,000  Level FlightAware ADS-B
Mon 03:59:19 PM 40.9080 -121.8238 195° South 463 533 39,000  Level FlightAware ADS-B
Mon 03:59:49 PM 40.8453 -121.8463 196° South 465 535 39,000  Level FlightAware ADS-B
Mon 04:00:20 PM 40.7813 -121.8701 196° South 464 534 39,000  Level FlightAware ADS-B
Mon 04:01:01 PM 40.6971 -121.9022 196° South 459 528 39,000  Level FlightAware ADS-B
Mon 04:01:31 PM 40.6366 -121.9258 197° South 457 526 39,000  Level FlightAware ADS-B
Mon 04:02:12 PM 40.5566 -121.9567 197° South 455 524 39,000  Level FlightAware ADS-B
Mon 04:02:43 PM 40.4950 -121.9810 197° South 455 524 39,000  Level FlightAware ADS-B
Mon 04:03:13 PM 40.4305 -122.0064 197° South 455 524 39,000  Level FlightAware ADS-B
Mon 04:03:56 PM 40.3596 -122.0336 196° South 452 520 39,000  Level FlightAware ADS-B (KSAC)
Mon 04:04:31 PM 40.2734 -122.0660 196° South 452 520 39,000  Level FlightAware ADS-B
Mon 04:05:11 PM 40.1928 -122.0961 196° South 452 520 39,000  Level FlightAware ADS-B
Mon 04:05:48 PM 40.1181 -122.1243 196° South 452 520 39,000  Level FlightAware ADS-B
Mon 04:06:18 PM 40.0695 -122.1426 196° South 451 519 39,000  Level FlightAware ADS-B (KSAC)
Mon 04:06:55 PM 39.9840 -122.1753 196° South 450 518 39,000  Level FlightAware ADS-B
Mon 04:07:38 PM 39.9093 -122.2034 196° South 448 516 39,000 -293 Level FlightAware ADS-B (KSAC)
Mon 04:08:17 PM 39.8299 -122.2348 195° South 451 519 38,600 -759 Descending FlightAware ADS-B (KSAC)
Mon 04:08:57 PM 39.7504 -122.2614 194° South 443 510 38,000 -900 Descending FlightAware ADS-B (KSAC)
Mon 04:09:37 PM 39.6741 -122.2893 196° South 431 496 37,400 -911 Descending FlightAware ADS-B (KSAC)
Mon 04:10:16 PM 39.6008 -122.3165 196° South 426 490 36,800 -963 Descending FlightAware ADS-B (KSAC)
Mon 04:10:58 PM 39.5202 -122.3473 196° South 422 486 36,100 -1,024 Descending FlightAware ADS-B (KSAC)
Mon 04:11:38 PM 39.4461 -122.3742 196° South 417 480 35,400 -1,152 Descending FlightAware ADS-B (KSAC)
Mon 04:12:37 PM 39.3361 -122.4150 196° South 414 476 34,200 -1,289 Descending FlightAware ADS-B (KSAC)
Mon 04:13:39 PM 39.2220 -122.4568 195° South 407 468 32,800 -1,440 Descending FlightAware ADS-B (KSAC)
Mon 04:14:17 PM 39.1504 -122.4830 195° South 400 460 31,800 -1,538 Descending FlightAware ADS-B (KSAC)
Mon 04:14:57 PM 39.0840 -122.5073 195° South 390 449 30,800 -1,463 Descending FlightAware ADS-B (KSAC)
Mon 04:15:39 PM 39.0100 -122.5340 195° South 380 437 29,800 -1,486 Descending FlightAware ADS-B (KSAC)
Mon 04:16:42 PM 38.9118 -122.5698 195° South 369 425 28,200 -1,806 Descending FlightAware ADS-B (KSAC)
Mon 04:17:22 PM 38.8452 -122.5897 189° South 379 436 26,700 -2,074 Descending FlightAware ADS-B (KSAC)
Mon 04:18:03 PM 38.7723 -122.5985 182° South 383 441 25,400 -1,852 Descending FlightAware ADS-B (KSAC)
Mon 04:18:43 PM 38.7025 -122.6029 182° South 379 436 24,200 -1,800 Descending FlightAware ADS-B (KSAC)
Mon 04:19:43 PM 38.5953 -122.6115 184° South 374 430 22,400 -1,800 Descending FlightAware ADS-B (KSAC)
Mon 04:20:23 PM 38.5269 -122.6179 184° South 369 425 21,200 -1,747 Descending FlightAware ADS-B (KSAC)
Mon 04:21:02 PM 38.4600 -122.6241 183° South 365 420 20,100 -1,680 Descending FlightAware ADS-B (KSAC)
Mon 04:22:03 PM 38.3595 -122.6329 183° South 356 410 18,400 -1,680 Descending FlightAware ADS-B (KSAC)
Mon 04:22:42 PM 38.2926 -122.6386 183° South 355 409 17,300 -1,725 Descending FlightAware ADS-B (KSAC)
Mon 04:23:23 PM 38.2569 -122.6418 183° South 355 409 16,100 -1,630 Descending FlightAware ADS-B (KSAC)
Mon 04:24:03 PM 38.1656 -122.6498 183° South 348 400 15,100 -1,558 Descending FlightAware ADS-B (KSAC)
Mon 04:24:40 PM 38.1015 -122.6552 183° South 341 392 14,100 -1,595 Descending FlightAware ADS-B (KSAC)
Mon 04:25:22 PM 38.0358 -122.6610 183° South 333 383 13,000 -1,562 Descending FlightAware ADS-B (KSAC)
Mon 04:25:53 PM 38.0154 -122.6625 183° South 330 380 12,200 -1,739 Descending FlightAware ADS-B (KSAC)
Mon 04:26:31 PM 37.9271 -122.6699 182° South 323 372 11,000 -977 Descending FlightAware ADS-B (EPLL / LCJ)
Mon 04:27:19 PM 37.8624 -122.6334 141° Southeast 296 341 10,800 -197 Descending FlightAware ADS-B (EPLL / LCJ)
Mon 04:27:32 PM 37.8484 -122.6191 139° Southeast 285 328 10,800  Level FlightAware ADS-B (EPLL / LCJ)
Mon 04:27:55 PM 37.8237 -122.5920 139° Southeast 284 327 10,800  Level FlightAware ADS-B
Mon 04:28:27 PM 37.7919 -122.5570 139° Southeast 284 327 10,800  Level FlightAware ADS-B
Mon 04:28:31 PM 37.7893 -122.5549 140° Southeast 284 327 10,800  Level FlightAware ADS-B (EPLL / LCJ)
Mon 04:28:58 PM 37.7609 -122.5240 140° Southeast 285 328 10,800  Level FlightAware ADS-B
Mon 04:29:36 PM 37.7246 -122.4857 140° Southeast 291 335 10,800  Level FlightAware ADS-B (EPLL / LCJ)
Mon 04:29:50 PM 37.7065 -122.4670 140° Southeast 291 335 10,800  Level FlightAware ADS-B
Mon 04:30:17 PM 37.6807 -122.4397 140° Southeast 287 330 10,800  Level FlightAware ADS-B (EPLL / LCJ)
Mon 04:30:28 PM 37.6684 -122.4260 140° Southeast 277 319 10,800  Level FlightAware ADS-B
Mon 04:30:57 PM 37.6413 -122.3970 140° Southeast 250 288 10,800  Level FlightAware ADS-B
Mon 04:31:06 PM 37.6332 -122.3890 143° Southeast 246 283 10,800  Level FlightAware ADS-B
Mon 04:31:39 PM 37.6010 -122.3650 150° Southeast 244 281 10,800 -469 Level FlightAware ADS-B
Mon 04:32:10 PM 37.5708 -122.3430 150° Southeast 241 277 10,300 -1,050 Descending FlightAware ADS-B
Mon 04:32:19 PM 37.5651 -122.3387 150° Southeast 242 278 10,100 -1,125 Descending FlightAware ADS-B (EPLL / LCJ)
Mon 04:32:26 PM 37.5558 -122.3320 150° Southeast 241 277 10,000 -1,364 Descending FlightAware ADS-B
Mon 04:32:41 PM 37.5406 -122.3210 150° Southeast 242 278 9,600 -1,548 Descending FlightAware ADS-B
Mon 04:32:57 PM 37.5251 -122.3100 150° Southeast 242 278 9,200 -1,455 Descending FlightAware ADS-B
Mon 04:33:14 PM 37.5096 -122.2980 150° Southeast 240 276 8,800 -1,333 Descending FlightAware ADS-B
Mon 04:33:33 PM 37.4913 -122.2840 150° Southeast 237 273 8,400 -1,250 Descending FlightAware ADS-B
Mon 04:33:38 PM 37.4913 -122.2843 150° Southeast 235 270 8,300 -1,333 Descending FlightAware ADS-B (EPLL / LCJ)
Mon 04:33:51 PM 37.4745 -122.2720 146° Southeast 234 269 8,000 -1,412 Descending FlightAware ADS-B
Mon 04:33:55 PM 37.4713 -122.2680 140° Southeast 234 269 7,900 -750 Descending FlightAware ADS-B
Mon 04:33:59 PM 37.4683 -122.2640 130° Southeast 234 269 7,900 -857 Level FlightAware ADS-B
Mon 04:34:02 PM 37.4663 -122.2610 123° Southeast 234 269 7,800 -1,000 Descending FlightAware ADS-B
Mon 04:34:05 PM 37.4645 -122.2570 118° Southeast 233 268 7,800  Level FlightAware ADS-B
Mon 04:34:08 PM 37.4632 -122.2540 115° Southeast 231 266 7,800  Level FlightAware ADS-B
Mon 04:34:12 PM 37.4618 -122.2490 112° Southeast 229 264 7,800 -667 Level FlightAware ADS-B
Mon 04:34:17 PM 37.4605 -122.2449 110° East 227 261 7,700 -545 Descending FlightAware ADS-B (EPLL / LCJ)
Mon 04:34:23 PM 37.4577 -122.2350 109° East 222 255 7,700 -522 Level FlightAware ADS-B
Mon 04:34:40 PM 37.4533 -122.2195 110° East 213 245 7,500 -667 Descending FlightAware ADS-B (EPLL / LCJ)
Mon 04:34:41 PM 37.4517 -122.2140 110° East 212 244 7,500 -1,125 Level FlightAware ADS-B
Mon 04:34:56 PM 37.4466 -122.1950 110° East 207 238 7,200 -900 Descending FlightAware ADS-B
Mon 04:35:01 PM 37.4496 -122.2067 110° East 208 239 7,200 -1,125 Level FlightAware ADS-B (EPLL / LCJ)
Mon 04:35:12 PM 37.4417 -122.1790 109° East 204 235 6,900 -1,875 Descending FlightAware ADS-B
Mon 04:35:17 PM 37.4405 -122.1730 104° East 204 235 6,700 -2,250 Descending FlightAware ADS-B
Mon 04:35:20 PM 37.4400 -122.1690 99° East 205 236 6,600 -1,500 Descending FlightAware ADS-B
Mon 04:35:25 PM 37.4402 -122.1630 85° East 208 239 6,500 -1,091 Descending FlightAware ADS-B
Mon 04:35:31 PM 37.4414 -122.1560 73° East 209 241 6,400 -2,000 Descending FlightAware ADS-B
Mon 04:35:34 PM 37.4429 -122.1530 64° Northeast 209 241 6,200 -2,571 Descending FlightAware ADS-B
Mon 04:35:38 PM 37.4447 -122.1490 55° Northeast 208 239 6,100 -1,714 Descending FlightAware ADS-B
Mon 04:35:41 PM 37.4469 -122.1460 49° Northeast 208 239 6,000 -1,500 Descending FlightAware ADS-B
Mon 04:35:46 PM 37.4500 -122.1420 41° Northeast 208 239 5,900 -1,636 Descending FlightAware ADS-B
Mon 04:35:52 PM 37.4546 -122.1370 36° Northeast 207 238 5,700 -1,500 Descending FlightAware ADS-B
Mon 04:35:58 PM 37.4595 -122.1330 34° Northeast 208 239 5,600 -1,500 Descending FlightAware ADS-B
Mon 04:36:00 PM 37.4518 -122.1400 32° Northeast 208 239 5,500 -2,400 Descending FlightAware ADS-B (EPLL / LCJ)
Mon 04:36:03 PM 37.4636 -122.1300 30° Northeast 208 239 5,400 -2,000 Descending FlightAware ADS-B
Mon 04:36:06 PM 37.4663 -122.1280 23° Northeast 207 238 5,300 -1,714 Descending FlightAware ADS-B
Mon 04:36:10 PM 37.4697 -122.1270 17° North 207 238 5,200 -1,636 Descending FlightAware ADS-B
Mon 04:36:17 PM 37.4761 -122.1250 11° North 206 237 5,000 -2,000 Descending FlightAware ADS-B
Mon 04:36:19 PM 37.4766 -122.1249 North 205 236 4,900 -1,846 Descending FlightAware ADS-B (EPLL / LCJ)
Mon 04:36:30 PM 37.4883 -122.1230 North 203 234 4,600 -1,714 Descending FlightAware ADS-B
Mon 04:36:40 PM 37.4919 -122.1231 344° North 196 226 4,300 -1,600 Descending FlightAware ADS-B (EPLL / LCJ)
Mon 04:36:45 PM 37.5015 -122.1270 339° North 194 223 4,200 -1,091 Descending FlightAware ADS-B
Mon 04:36:51 PM 37.5068 -122.1300 330° Northwest 191 220 4,100 -1,286 Descending FlightAware ADS-B
Mon 04:36:59 PM 37.5088 -122.1317 328° Northwest 190 219 3,900 -1,200 Descending FlightAware ADS-B (EPLL / LCJ)
Mon 04:37:01 PM 37.5139 -122.1360 327° Northwest 189 217 3,900 -1,200 Level FlightAware ADS-B
Mon 04:37:04 PM 37.5164 -122.1380 324° Northwest 188 216 3,800 -1,714 Descending FlightAware ADS-B
Mon 04:37:08 PM 37.5184 -122.1410 318° Northwest 187 215 3,700 -1,714 Descending FlightAware ADS-B
Mon 04:37:11 PM 37.5206 -122.1430 311° West 185 213 3,600 -857 Descending FlightAware ADS-B
Mon 04:37:15 PM 37.5224 -122.1460 307° West 183 211 3,600 -857 Level FlightAware ADS-B
Mon 04:37:18 PM 37.5241 -122.1490 303° West 183 211 3,500 -2,400 Descending FlightAware ADS-B
Mon 04:37:20 PM 37.5245 -122.1499 301° West 182 209 3,400 -1,714 Descending FlightAware ADS-B (EPLL / LCJ)
Mon 04:37:25 PM 37.5266 -122.1550 298° West 182 209 3,300 -1,200 Descending FlightAware ADS-B
Mon 04:37:40 PM 37.5326 -122.1700 297° West 181 208 3,000 -1,000 Descending FlightAware ADS-B
Mon 04:37:55 PM 37.5387 -122.1840 298° West 185 213 2,800 -774 Descending FlightAware ADS-B
Mon 04:38:11 PM 37.5446 -122.1980 298° West 181 208 2,600 -968 Descending FlightAware ADS-B
Mon 04:38:26 PM 37.5507 -122.2130 298° West 182 209 2,300 -1,000 Descending FlightAware ADS-B
Mon 04:38:41 PM 37.5567 -122.2270 298° West 180 207 2,100 -828 Descending FlightAware ADS-B
Mon 04:38:55 PM 37.5621 -122.2400 298° West 170 196 1,900 -857 Descending FlightAware ADS-B
Mon 04:39:09 PM 37.5669 -122.2520 298° West 162 186 1,700 -968 Descending FlightAware ADS-B
Mon 04:39:26 PM 37.5732 -122.2660 298° West 165 190 1,400 -909 Descending FlightAware ADS-B
Mon 04:39:42 PM 37.5785 -122.2790 298° West 153 176 1,200 -692 Descending FlightAware ADS-B
Mon 04:39:52 PM 37.5819 -122.2870 298° West 147 169 1,100 -667 Descending FlightAware ADS-B
Mon 04:40:09 PM 37.5872 -122.3000 298° West 147 169 900 -750 Descending FlightAware ADS-B
Mon 04:40:24 PM 37.5921 -122.3110 298° West 148 170 700 -800 Descending FlightAware ADS-B
Mon 04:40:39 PM 37.5972 -122.3230 298° West 149 171 500 -800 Descending FlightAware ADS-B
Mon 04:40:54 PM 37.6019 -122.3340 297° West 146 168 300 -800 Descending FlightAware ADS-B
Mon 04:41:09 PM 37.6064 -122.3460 298° West 146 168 100 -800 Descending FlightAware ADS-B

Login

Don't have an account? Register now (free) for customized features, flight alerts, and more!